sensor_id;sensor_type;location;lat;lon;timestamp;temperature;humidity
29687;DHT22;16599;47.078;15.536;2022-12-11T06:43:38;0.50;99.90
29687;DHT22;16599;47.078;15.536;2022-12-11T06:46:14;0.50;99.90
29687;DHT22;16599;47.078;15.536;2022-12-11T06:52:32;0.40;99.90
29687;DHT22;16599;47.078;15.536;2022-12-11T06:58:24;0.50;99.90
29687;DHT22;16599;47.078;15.536;2022-12-11T07:00:51;0.50;99.90
29687;DHT22;16599;47.078;15.536;2022-12-11T07:03:20;0.40;99.90
29687;DHT22;16599;47.078;15.536;2022-12-11T07:10:05;0.50;99.90
29687;DHT22;16599;47.078;15.536;2022-12-11T07:46:24;1.10;99.90
29687;DHT22;16599;47.078;15.536;2022-12-11T07:53:25;1.00;99.90
29687;DHT22;16599;47.078;15.536;2022-12-11T07:59:33;0.90;99.90
29687;DHT22;16599;47.078;15.536;2022-12-11T08:05:48;0.90;99.90
29687;DHT22;16599;47.078;15.536;2022-12-11T08:08:15;1.10;99.90
29687;DHT22;16599;47.078;15.536;2022-12-11T08:14:30;1.10;99.90
29687;DHT22;16599;47.078;15.536;2022-12-11T08:16:57;1.10;99.90
29687;DHT22;16599;47.078;15.536;2022-12-11T08:19:25;1.20;99.90
29687;DHT22;16599;47.078;15.536;2022-12-11T08:26:02;1.40;99.90
29687;DHT22;16599;47.078;15.536;2022-12-11T08:28:29;1.50;99.90
29687;DHT22;16599;47.078;15.536;2022-12-11T08:30:56;1.60;99.90
29687;DHT22;16599;47.078;15.536;2022-12-11T08:33:23;1.70;99.90
29687;DHT22;16599;47.078;15.536;2022-12-11T09:34:02;2.30;99.90
29687;DHT22;16599;47.078;15.536;2022-12-11T09:48:02;2.60;99.90
29687;DHT22;16599;47.078;15.536;2022-12-11T10:15:53;2.80;99.90
29687;DHT22;16599;47.078;15.536;2022-12-11T10:18:23;2.80;99.90
29687;DHT22;16599;47.078;15.536;2022-12-11T10:35:40;2.80;99.90
29687;DHT22;16599;47.078;15.536;2022-12-11T10:57:14;2.80;92.90
29687;DHT22;16599;47.078;15.536;2022-12-11T11:03:27;2.80;92.00
29687;DHT22;16599;47.078;15.536;2022-12-11T11:17:31;2.80;91.60
29687;DHT22;16599;47.078;15.536;2022-12-11T11:23:48;3.00;92.10
29687;DHT22;16599;47.078;15.536;2022-12-11T11:26:20;3.00;89.80
29687;DHT22;16599;47.078;15.536;2022-12-11T11:28:53;2.90;87.30
29687;DHT22;16599;47.078;15.536;2022-12-11T11:40:36;3.00;91.20
29687;DHT22;16599;47.078;15.536;2022-12-11T11:57:26;3.00;86.80
29687;DHT22;16599;47.078;15.536;2022-12-11T12:03:41;2.90;83.60
29687;DHT22;16599;47.078;15.536;2022-12-11T12:17:56;3.00;87.20
29687;DHT22;16599;47.078;15.536;2022-12-11T12:38:09;3.10;89.80
29687;DHT22;16599;47.078;15.536;2022-12-11T12:48:38;2.70;80.70
29687;DHT22;16599;47.078;15.536;2022-12-11T12:51:05;2.70;83.30
29687;DHT22;16599;47.078;15.536;2022-12-11T12:53:33;2.70;82.00
29687;DHT22;16599;47.078;15.536;2022-12-11T12:56:03;2.40;80.60
29687;DHT22;16599;47.078;15.536;2022-12-11T13:03:57;2.50;78.20
29687;DHT22;16599;47.078;15.536;2022-12-11T13:10:34;2.40;82.60
29687;DHT22;16599;47.078;15.536;2022-12-11T13:13:02;2.40;78.90
29687;DHT22;16599;47.078;15.536;2022-12-11T13:15:39;2.40;78.70
29687;DHT22;16599;47.078;15.536;2022-12-11T13:18:29;2.40;78.70
29687;DHT22;16599;47.078;15.536;2022-12-11T13:24:33;2.40;86.10
29687;DHT22;16599;47.078;15.536;2022-12-11T13:27:25;2.40;85.40
29687;DHT22;16599;47.078;15.536;2022-12-11T13:30:25;2.50;85.50
29687;DHT22;16599;47.078;15.536;2022-12-11T13:35:31;2.40;76.40
29687;DHT22;16599;47.078;15.536;2022-12-11T13:38:06;2.40;81.40
29687;DHT22;16599;47.078;15.536;2022-12-11T13:40:39;2.50;86.60
29687;DHT22;16599;47.078;15.536;2022-12-11T13:43:16;2.50;89.70
29687;DHT22;16599;47.078;15.536;2022-12-11T13:48:34;2.40;86.60
29687;DHT22;16599;47.078;15.536;2022-12-11T13:51:03;2.50;82.20
29687;DHT22;16599;47.078;15.536;2022-12-11T13:53:31;2.40;82.80
29687;DHT22;16599;47.078;15.536;2022-12-11T13:56:01;2.30;82.00
29687;DHT22;16599;47.078;15.536;2022-12-11T13:58:29;2.10;79.30
29687;DHT22;16599;47.078;15.536;2022-12-11T14:03:27;2.10;86.10
29687;DHT22;16599;47.078;15.536;2022-12-11T14:05:55;2.00;78.60
29687;DHT22;16599;47.078;15.536;2022-12-11T14:08:33;2.10;81.90
29687;DHT22;16599;47.078;15.536;2022-12-11T14:11:01;2.10;85.40
29687;DHT22;16599;47.078;15.536;2022-12-11T14:13:34;2.00;83.20
29687;DHT22;16599;47.078;15.536;2022-12-11T14:16:22;2.00;83.20
29687;DHT22;16599;47.078;15.536;2022-12-11T14:22:29;1.90;85.30
29687;DHT22;16599;47.078;15.536;2022-12-11T14:25:24;1.80;87.60
29687;DHT22;16599;47.078;15.536;2022-12-11T14:27:54;1.60;83.70
29687;DHT22;16599;47.078;15.536;2022-12-11T14:30:28;1.60;88.50
29687;DHT22;16599;47.078;15.536;2022-12-11T14:33:13;1.50;90.70
29687;DHT22;16599;47.078;15.536;2022-12-11T14:35:42;1.50;90.60
29687;DHT22;16599;47.078;15.536;2022-12-11T14:38:15;1.50;90.00
29687;DHT22;16599;47.078;15.536;2022-12-11T14:40:47;1.50;90.20
29687;DHT22;16599;47.078;15.536;2022-12-11T14:43:26;1.50;87.50
29687;DHT22;16599;47.078;15.536;2022-12-11T14:45:57;1.50;88.70
29687;DHT22;16599;47.078;15.536;2022-12-11T14:48:29;1.50;91.00
29687;DHT22;16599;47.078;15.536;2022-12-11T14:54:33;1.40;91.10
29687;DHT22;16599;47.078;15.536;2022-12-11T14:57:02;1.40;90.10
29687;DHT22;16599;47.078;15.536;2022-12-11T14:59:38;1.30;89.20
29687;DHT22;16599;47.078;15.536;2022-12-11T15:02:39;1.10;84.50
29687;DHT22;16599;47.078;15.536;2022-12-11T15:05:15;1.10;86.60
29687;DHT22;16599;47.078;15.536;2022-12-11T15:19:40;0.80;88.30
29687;DHT22;16599;47.078;15.536;2022-12-11T15:22:57;0.80;89.80
29687;DHT22;16599;47.078;15.536;2022-12-11T15:25:27;0.80;91.10
29687;DHT22;16599;47.078;15.536;2022-12-11T15:27:57;0.90;91.30
29687;DHT22;16599;47.078;15.536;2022-12-11T15:30:38;0.80;88.50
29687;DHT22;16599;47.078;15.536;2022-12-11T15:36:52;0.90;90.20
29687;DHT22;16599;47.078;15.536;2022-12-11T15:50:49;0.90;92.60
29687;DHT22;16599;47.078;15.536;2022-12-11T15:56:37;1.00;94.10
29687;DHT22;16599;47.078;15.536;2022-12-11T15:59:05;0.80;92.30
29687;DHT22;16599;47.078;15.536;2022-12-11T16:01:32;0.60;91.20
29687;DHT22;16599;47.078;15.536;2022-12-11T16:04:00;0.50;91.80
29687;DHT22;16599;47.078;15.536;2022-12-11T17:04:21;-0.60;97.60
29687;DHT22;16599;47.078;15.536;2022-12-11T17:06:48;-0.50;98.60
29687;DHT22;16599;47.078;15.536;2022-12-11T17:09:15;-0.40;98.40
29687;DHT22;16599;47.078;15.536;2022-12-11T17:11:42;-0.40;98.50
29687;DHT22;16599;47.078;15.536;2022-12-11T17:14:09;-0.30;98.90
29687;DHT22;16599;47.078;15.536;2022-12-11T17:16:38;-0.20;98.70
29687;DHT22;16599;47.078;15.536;2022-12-11T17:19:04;-0.30;98.20
29687;DHT22;16599;47.078;15.536;2022-12-11T17:21:32;-0.20;98.10
29687;DHT22;16599;47.078;15.536;2022-12-11T17:23:59;-0.20;98.30
29687;DHT22;16599;47.078;15.536;2022-12-11T17:26:26;-0.10;98.20
29687;DHT22;16599;47.078;15.536;2022-12-11T17:28:55;-0.20;98.20
29687;DHT22;16599;47.078;15.536;2022-12-11T17:31:23;-0.10;98.80
29687;DHT22;16599;47.078;15.536;2022-12-11T17:33:50;0.00;98.40
29687;DHT22;16599;47.078;15.536;2022-12-11T17:36:20;-0.10;98.70
29687;DHT22;16599;47.078;15.536;2022-12-11T17:38:48;-0.10;98.90
29687;DHT22;16599;47.078;15.536;2022-12-11T17:41:18;-0.10;98.80
29687;DHT22;16599;47.078;15.536;2022-12-11T17:43:51;-0.10;98.60
29687;DHT22;16599;47.078;15.536;2022-12-11T17:46:19;-0.10;98.80
29687;DHT22;16599;47.078;15.536;2022-12-11T17:49:23;-0.10;98.10
29687;DHT22;16599;47.078;15.536;2022-12-11T17:51:52;0.00;98.30
29687;DHT22;16599;47.078;15.536;2022-12-11T17:58:22;-0.10;98.90
29687;DHT22;16599;47.078;15.536;2022-12-11T18:04:07;-0.20;99.10
29687;DHT22;16599;47.078;15.536;2022-12-11T18:06:34;-0.10;99.60
29687;DHT22;16599;47.078;15.536;2022-12-11T18:09:02;-0.20;99.80
29687;DHT22;16599;47.078;15.536;2022-12-11T18:11:29;-0.20;99.90
29687;DHT22;16599;47.078;15.536;2022-12-11T18:13:56;-0.30;99.90
29687;DHT22;16599;47.078;15.536;2022-12-11T18:16:28;-0.30;99.90
29687;DHT22;16599;47.078;15.536;2022-12-11T18:18:55;-0.40;99.90
29687;DHT22;16599;47.078;15.536;2022-12-11T18:21:28;-0.50;99.20
29687;DHT22;16599;47.078;15.536;2022-12-11T18:23:55;-0.50;99.60
29687;DHT22;16599;47.078;15.536;2022-12-11T18:26:22;-0.50;98.70
29687;DHT22;16599;47.078;15.536;2022-12-11T18:28:50;-0.40;98.90
29687;DHT22;16599;47.078;15.536;2022-12-11T18:31:19;-0.30;99.90
29687;DHT22;16599;47.078;15.536;2022-12-11T18:33:47;-0.30;99.30
29687;DHT22;16599;47.078;15.536;2022-12-11T18:36:15;-0.20;99.90
29687;DHT22;16599;47.078;15.536;2022-12-11T18:38:43;-0.40;99.90
29687;DHT22;16599;47.078;15.536;2022-12-11T18:41:14;-0.30;99.90
29687;DHT22;16599;47.078;15.536;2022-12-11T18:43:41;-0.30;99.90
29687;DHT22;16599;47.078;15.536;2022-12-11T18:46:10;-0.20;99.90
29687;DHT22;16599;47.078;15.536;2022-12-11T18:48:37;-0.30;99.90
29687;DHT22;16599;47.078;15.536;2022-12-11T18:51:27;-0.20;99.90
29687;DHT22;16599;47.078;15.536;2022-12-11T18:53:54;-0.30;99.90
29687;DHT22;16599;47.078;15.536;2022-12-11T18:56:21;-0.30;99.90
29687;DHT22;16599;47.078;15.536;2022-12-11T18:58:49;-0.50;99.90
29687;DHT22;16599;47.078;15.536;2022-12-11T19:01:22;-0.50;99.90
29687;DHT22;16599;47.078;15.536;2022-12-11T19:03:51;-0.50;99.90
29687;DHT22;16599;47.078;15.536;2022-12-11T19:06:26;-0.40;99.90
29687;DHT22;16599;47.078;15.536;2022-12-11T19:08:56;-0.20;99.90
29687;DHT22;16599;47.078;15.536;2022-12-11T19:11:28;-0.40;99.90
29687;DHT22;16599;47.078;15.536;2022-12-11T19:13:56;-0.50;99.90
29687;DHT22;16599;47.078;15.536;2022-12-11T19:16:35;-0.50;99.90
29687;DHT22;16599;47.078;15.536;2022-12-11T19:19:09;-0.50;99.90
29687;DHT22;16599;47.078;15.536;2022-12-11T19:21:37;-0.60;99.90
29687;DHT22;16599;47.078;15.536;2022-12-11T19:24:06;-0.60;99.90
29687;DHT22;16599;47.078;15.536;2022-12-11T19:26:34;-1.00;99.90
29687;DHT22;16599;47.078;15.536;2022-12-11T19:29:02;-1.00;99.90
29687;DHT22;16599;47.078;15.536;2022-12-11T19:31:30;-0.80;99.90
29687;DHT22;16599;47.078;15.536;2022-12-11T19:34:17;-0.80;99.90
29687;DHT22;16599;47.078;15.536;2022-12-11T19:36:44;-0.80;99.90
29687;DHT22;16599;47.078;15.536;2022-12-11T19:39:11;-0.80;99.90
29687;DHT22;16599;47.078;15.536;2022-12-11T19:41:39;-0.80;99.90
29687;DHT22;16599;47.078;15.536;2022-12-11T19:44:06;-0.80;99.90
29687;DHT22;16599;47.078;15.536;2022-12-11T19:46:34;-0.80;99.90
29687;DHT22;16599;47.078;15.536;2022-12-11T19:49:01;-0.80;99.90
29687;DHT22;16599;47.078;15.536;2022-12-11T19:51:33;-0.80;99.90
29687;DHT22;16599;47.078;15.536;2022-12-11T19:54:02;-1.10;99.90
29687;DHT22;16599;47.078;15.536;2022-12-11T19:56:30;-0.90;99.90
29687;DHT22;16599;47.078;15.536;2022-12-11T19:58:58;-0.90;99.90
29687;DHT22;16599;47.078;15.536;2022-12-11T20:01:28;-1.00;99.90
29687;DHT22;16599;47.078;15.536;2022-12-11T20:03:58;-1.10;99.90
29687;DHT22;16599;47.078;15.536;2022-12-11T20:06:30;-1.20;99.90
29687;DHT22;16599;47.078;15.536;2022-12-11T20:08:57;-1.10;99.90
29687;DHT22;16599;47.078;15.536;2022-12-11T20:11:24;-1.20;99.90
29687;DHT22;16599;47.078;15.536;2022-12-11T20:13:52;-1.10;99.90
29687;DHT22;16599;47.078;15.536;2022-12-11T20:16:21;-1.20;99.90
29687;DHT22;16599;47.078;15.536;2022-12-11T20:19:12;-1.70;99.90
29687;DHT22;16599;47.078;15.536;2022-12-11T20:21:39;-1.50;99.90
29687;DHT22;16599;47.078;15.536;2022-12-11T20:24:22;-1.40;99.90
29687;DHT22;16599;47.078;15.536;2022-12-11T20:26:52;-1.70;99.90
29687;DHT22;16599;47.078;15.536;2022-12-11T20:29:19;-1.60;99.90
29687;DHT22;16599;47.078;15.536;2022-12-11T20:31:48;-1.30;99.90
29687;DHT22;16599;47.078;15.536;2022-12-11T20:34:16;-1.60;99.90
29687;DHT22;16599;47.078;15.536;2022-12-11T20:36:43;-1.50;99.90
29687;DHT22;16599;47.078;15.536;2022-12-11T20:39:09;-1.50;99.90
29687;DHT22;16599;47.078;15.536;2022-12-11T20:41:36;-1.50;99.90
29687;DHT22;16599;47.078;15.536;2022-12-11T20:44:03;-1.40;99.90
29687;DHT22;16599;47.078;15.536;2022-12-11T20:46:32;-1.30;99.90
29687;DHT22;16599;47.078;15.536;2022-12-11T20:48:59;-1.50;99.90
29687;DHT22;16599;47.078;15.536;2022-12-11T20:51:26;-1.50;99.90
29687;DHT22;16599;47.078;15.536;2022-12-11T20:53:54;-1.60;99.90
29687;DHT22;16599;47.078;15.536;2022-12-11T20:56:29;-1.50;99.90
29687;DHT22;16599;47.078;15.536;2022-12-11T20:58:59;-1.80;99.90
29687;DHT22;16599;47.078;15.536;2022-12-11T21:01:29;-1.70;99.90
29687;DHT22;16599;47.078;15.536;2022-12-11T21:03:56;-1.60;99.90
29687;DHT22;16599;47.078;15.536;2022-12-11T21:06:27;-1.50;99.90
29687;DHT22;16599;47.078;15.536;2022-12-11T21:08:58;-1.60;99.90
29687;DHT22;16599;47.078;15.536;2022-12-11T21:11:25;-2.00;99.90
29687;DHT22;16599;47.078;15.536;2022-12-11T21:13:52;-1.90;99.90
29687;DHT22;16599;47.078;15.536;2022-12-11T21:16:19;-1.80;99.90
29687;DHT22;16599;47.078;15.536;2022-12-11T21:18:47;-1.60;99.90
29687;DHT22;16599;47.078;15.536;2022-12-11T21:21:14;-1.50;99.90
29687;DHT22;16599;47.078;15.536;2022-12-11T21:23:42;-1.70;99.90
29687;DHT22;16599;47.078;15.536;2022-12-11T21:26:09;-1.90;99.90
29687;DHT22;16599;47.078;15.536;2022-12-11T21:28:36;-1.80;99.90
29687;DHT22;16599;47.078;15.536;2022-12-11T21:31:07;-1.90;99.90
29687;DHT22;16599;47.078;15.536;2022-12-11T21:33:37;-1.90;99.90
29687;DHT22;16599;47.078;15.536;2022-12-11T21:36:06;-1.80;99.90
29687;DHT22;16599;47.078;15.536;2022-12-11T21:38:35;-1.70;99.90
29687;DHT22;16599;47.078;15.536;2022-12-11T21:41:19;-2.10;99.90
29687;DHT22;16599;47.078;15.536;2022-12-11T21:43:51;-2.10;99.90
29687;DHT22;16599;47.078;15.536;2022-12-11T21:46:38;-2.40;99.90
29687;DHT22;16599;47.078;15.536;2022-12-11T21:49:06;-2.60;99.90
29687;DHT22;16599;47.078;15.536;2022-12-11T21:51:36;-2.60;99.90
29687;DHT22;16599;47.078;15.536;2022-12-11T21:54:13;-2.40;99.90
29687;DHT22;16599;47.078;15.536;2022-12-11T21:56:40;-2.30;99.90
29687;DHT22;16599;47.078;15.536;2022-12-11T21:59:10;-2.20;99.90
29687;DHT22;16599;47.078;15.536;2022-12-11T22:01:40;-2.10;99.90
29687;DHT22;16599;47.078;15.536;2022-12-11T22:04:09;-2.10;99.90
29687;DHT22;16599;47.078;15.536;2022-12-11T22:06:36;-1.90;99.90
29687;DHT22;16599;47.078;15.536;2022-12-11T22:09:03;-1.90;99.90
29687;DHT22;16599;47.078;15.536;2022-12-11T22:11:33;-1.90;99.90
29687;DHT22;16599;47.078;15.536;2022-12-11T22:14:00;-2.00;99.90
29687;DHT22;16599;47.078;15.536;2022-12-11T22:16:28;-2.00;99.90
29687;DHT22;16599;47.078;15.536;2022-12-11T22:18:55;-2.10;99.90
29687;DHT22;16599;47.078;15.536;2022-12-11T22:21:22;-2.00;99.90
29687;DHT22;16599;47.078;15.536;2022-12-11T22:23:50;-2.00;99.90
29687;DHT22;16599;47.078;15.536;2022-12-11T22:26:23;-1.80;99.90
29687;DHT22;16599;47.078;15.536;2022-12-11T22:28:51;-1.70;99.90
29687;DHT22;16599;47.078;15.536;2022-12-11T22:31:19;-1.70;99.90
29687;DHT22;16599;47.078;15.536;2022-12-11T22:33:48;-1.70;99.90
29687;DHT22;16599;47.078;15.536;2022-12-11T22:36:15;-1.60;99.90
29687;DHT22;16599;47.078;15.536;2022-12-11T22:38:45;-1.50;99.90
29687;DHT22;16599;47.078;15.536;2022-12-11T22:41:15;-1.40;99.90
29687;DHT22;16599;47.078;15.536;2022-12-11T22:43:48;-1.60;99.90
29687;DHT22;16599;47.078;15.536;2022-12-11T22:46:16;-1.90;99.90
29687;DHT22;16599;47.078;15.536;2022-12-11T22:48:44;-1.80;99.90
29687;DHT22;16599;47.078;15.536;2022-12-11T22:51:11;-1.70;99.90
29687;DHT22;16599;47.078;15.536;2022-12-11T22:53:38;-1.80;99.90
29687;DHT22;16599;47.078;15.536;2022-12-11T22:56:07;-1.70;99.90
29687;DHT22;16599;47.078;15.536;2022-12-11T22:58:35;-1.60;99.90
29687;DHT22;16599;47.078;15.536;2022-12-11T23:01:08;-1.50;99.90
29687;DHT22;16599;47.078;15.536;2022-12-11T23:03:36;-1.50;99.90
29687;DHT22;16599;47.078;15.536;2022-12-11T23:06:05;-1.40;99.90
29687;DHT22;16599;47.078;15.536;2022-12-11T23:08:34;-1.50;99.90
29687;DHT22;16599;47.078;15.536;2022-12-11T23:11:02;-1.40;99.90
29687;DHT22;16599;47.078;15.536;2022-12-11T23:13:29;-1.50;99.90
29687;DHT22;16599;47.078;15.536;2022-12-11T23:15:56;-1.50;99.90
29687;DHT22;16599;47.078;15.536;2022-12-11T23:18:23;-1.60;99.90
29687;DHT22;16599;47.078;15.536;2022-12-11T23:20:49;-1.80;99.90
29687;DHT22;16599;47.078;15.536;2022-12-11T23:23:16;-1.70;99.90
29687;DHT22;16599;47.078;15.536;2022-12-11T23:25:43;-1.70;99.90
29687;DHT22;16599;47.078;15.536;2022-12-11T23:28:10;-1.70;99.90
29687;DHT22;16599;47.078;15.536;2022-12-11T23:30:37;-1.60;99.90
29687;DHT22;16599;47.078;15.536;2022-12-11T23:33:04;-1.60;99.90
29687;DHT22;16599;47.078;15.536;2022-12-11T23:35:32;-1.60;99.90
29687;DHT22;16599;47.078;15.536;2022-12-11T23:37:59;-1.60;99.90
29687;DHT22;16599;47.078;15.536;2022-12-11T23:40:26;-1.70;99.90
29687;DHT22;16599;47.078;15.536;2022-12-11T23:42:53;-1.80;99.90
29687;DHT22;16599;47.078;15.536;2022-12-11T23:45:20;-1.70;99.90
29687;DHT22;16599;47.078;15.536;2022-12-11T23:47:48;-1.60;99.90
29687;DHT22;16599;47.078;15.536;2022-12-11T23:50:16;-1.70;99.90
29687;DHT22;16599;47.078;15.536;2022-12-11T23:52:43;-1.60;99.90
29687;DHT22;16599;47.078;15.536;2022-12-11T23:55:10;-1.60;99.90
29687;DHT22;16599;47.078;15.536;2022-12-11T23:57:38;-1.50;99.90
